Sebec Lake, Maine
Current Conditions -  °F | °C
As of 3:53 PM on Saturday 20 Dec 2014 (Local Time) from KMLT Reporting Station
Overcast Overcast  
Wind Chill: 12°   Ceiling: 1400
Heat Index: 20°   Visibility: 10mi
Dew Point: 16°   Wind: 6mph
Humidity: 85%   Direction: 340°NNW
Pressure: 30.35"   Gusts: NA
Location:  45.2997°N, 69.3389°W
Report Text: KMLT 202053Z AUTO 34005KT 10SM OVC014 M07/M09 A3035 RMK AO2 SLP292 T10671089 53001
Loading
Personal Weather Stations






























Interactive Weather Map New forecast layout! Learn more

10-Day Weather Forecast

Advertisements
Track Severe Weather on mobile